Time;durP1;ratioP1;P1;durP2;ratioP2;P2;SDS_P1;SDS_P2;PMS_P1;PMS_P2;Temp;Humidity;BMP_temperature;BMP_pressure;BME280_temperature;BME280_humidity;BME280_pressure;Samples;Min_cycle;Max_cycle;Signal;HPM_P1;HPM_P2
2021/09/26 00:00:21;;;;;;;8.98;6.47;;;;;;;;;;5133829;27;20472;-58
2021/09/26 00:02:47;;;;;;;10.15;6.75;;;;;;;;;;5133823;27;20076;-58
2021/09/26 00:05:13;;;;;;;7.80;6.03;;;;;;;;;;5133692;27;20096;-58
2021/09/26 00:07:40;;;;;;;9.90;6.20;;;;;;;;;;5133982;27;20023;-57
2021/09/26 00:10:07;;;;;;;8.05;6.38;;;;;;;;;;5133697;27;20038;-58
2021/09/26 00:12:33;;;;;;;11.55;6.50;;;;;;;;;;5115430;28;20027;-58
2021/09/26 00:14:59;;;;;;;9.05;5.95;;;;;;;;;;5133543;28;20528;-58
2021/09/26 00:17:26;;;;;;;8.77;6.32;;;;;;;;;;5133734;28;20451;-58
2021/09/26 00:19:52;;;;;;;11.63;6.28;;;;;;;;;;5133573;28;20027;-58
2021/09/26 00:22:18;;;;;;;8.25;5.90;;;;;;;;;;5133888;28;20030;-58
2021/09/26 00:24:44;;;;;;;8.88;6.20;;;;;;;;;;5133311;28;20051;-58
2021/09/26 00:27:12;;;;;;;8.35;5.95;;;;;;;;;;5133635;28;20015;-58
2021/09/26 00:29:38;;;;;;;9.10;6.40;;;;;;;;;;5133354;28;20027;-58
2021/09/26 00:32:05;;;;;;;9.30;6.10;;;;;;;;;;5133804;28;20053;-59
2021/09/26 00:34:31;;;;;;;7.72;5.88;;;;;;;;;;5133582;28;20031;-58
2021/09/26 00:36:57;;;;;;;10.65;6.00;;;;;;;;;;5133606;28;20016;-58
2021/09/26 00:39:23;;;;;;;9.68;6.65;;;;;;;;;;5133391;28;20096;-58
2021/09/26 00:41:49;;;;;;;9.07;6.13;;;;;;;;;;5133175;28;20035;-58
2021/09/26 00:44:16;;;;;;;8.68;6.03;;;;;;;;;;5133330;28;20026;-59
2021/09/26 00:46:42;;;;;;;11.95;6.47;;;;;;;;;;5133535;27;20023;-58
2021/09/26 00:49:08;;;;;;;11.73;6.93;;;;;;;;;;5136577;27;20065;-58
2021/09/26 00:51:34;;;;;;;7.15;5.22;;;;;;;;;;5137255;27;20031;-58
2021/09/26 00:54:00;;;;;;;9.68;6.13;;;;;;;;;;5137444;27;20373;-58
2021/09/26 00:56:26;;;;;;;9.95;6.75;;;;;;;;;;5137369;27;20027;-58
2021/09/26 00:58:52;;;;;;;12.23;6.70;;;;;;;;;;5118686;27;20501;-58
2021/09/26 01:01:18;;;;;;;9.20;6.93;;;;;;;;;;5137074;27;20033;-58
2021/09/26 01:03:44;;;;;;;9.98;6.78;;;;;;;;;;5118701;27;20019;-58
2021/09/26 01:06:17;;;;;;;8.85;6.72;;;;;;;;;;5136999;27;20035;-58
2021/09/26 01:08:53;;;;;;;8.15;6.03;;;;;;;;;;5137327;27;20015;-58
2021/09/26 01:11:26;;;;;;;9.55;6.53;;;;;;;;;;5137063;27;20419;-57
2021/09/26 01:13:57;;;;;;;9.32;6.15;;;;;;;;;;5136892;27;20019;-58
2021/09/26 01:16:33;;;;;;;9.50;6.40;;;;;;;;;;5136993;27;20386;-58
2021/09/26 01:19:05;;;;;;;9.23;6.32;;;;;;;;;;5136901;27;20051;-58
2021/09/26 01:21:47;;;;;;;10.70;7.22;;;;;;;;;;5136731;27;20360;-58
2021/09/26 01:24:41;;;;;;;11.23;6.45;;;;;;;;;;5136639;27;20457;-58
2021/09/26 01:27:07;;;;;;;8.43;6.80;;;;;;;;;;5118445;27;20023;-58
2021/09/26 01:29:52;;;;;;;8.48;6.47;;;;;;;;;;5136590;27;20080;-58
2021/09/26 01:32:18;;;;;;;8.93;6.00;;;;;;;;;;5136565;27;20019;-58
2021/09/26 01:34:51;;;;;;;12.70;7.20;;;;;;;;;;5136565;27;20504;-58
2021/09/26 01:37:26;;;;;;;10.00;7.47;;;;;;;;;;5136274;27;20068;-58
2021/09/26 01:39:55;;;;;;;11.00;7.45;;;;;;;;;;5136447;27;20061;-58
2021/09/26 01:42:27;;;;;;;8.88;6.90;;;;;;;;;;5136564;27;20024;-58
2021/09/26 01:44:59;;;;;;;10.90;7.80;;;;;;;;;;5136463;27;20038;-58
2021/09/26 01:47:32;;;;;;;12.60;8.23;;;;;;;;;;5136229;27;20052;-58
2021/09/26 01:50:00;;;;;;;12.07;8.02;;;;;;;;;;5136457;27;20035;-59
2021/09/26 01:52:28;;;;;;;14.85;8.45;;;;;;;;;;5135948;27;20407;-58
2021/09/26 01:54:55;;;;;;;13.40;8.50;;;;;;;;;;5136231;27;20099;-58
2021/09/26 01:57:21;;;;;;;10.57;6.85;;;;;;;;;;5135943;27;20076;-58
2021/09/26 01:59:51;;;;;;;10.40;7.30;;;;;;;;;;5135789;27;20022;-58
2021/09/26 02:02:21;;;;;;;10.90;7.15;;;;;;;;;;5136164;27;20026;-58
2021/09/26 02:04:50;;;;;;;8.30;6.50;;;;;;;;;;5135977;27;20016;-58
2021/09/26 02:07:16;;;;;;;9.45;7.07;;;;;;;;;;5135570;27;20572;-58
2021/09/26 02:09:42;;;;;;;13.35;7.60;;;;;;;;;;5135790;27;20073;-58
2021/09/26 02:12:09;;;;;;;9.90;7.00;;;;;;;;;;5135798;27;20450;-58
2021/09/26 02:14:35;;;;;;;10.68;7.35;;;;;;;;;;5135620;27;20031;-58
2021/09/26 02:17:01;;;;;;;11.32;7.05;;;;;;;;;;5135709;27;20043;-58
2021/09/26 02:19:27;;;;;;;9.15;6.43;;;;;;;;;;5135717;27;20106;-58
2021/09/26 02:21:53;;;;;;;10.82;7.57;;;;;;;;;;5117252;27;20047;-58
2021/09/26 02:24:19;;;;;;;11.43;7.90;;;;;;;;;;5135416;27;20133;-58
2021/09/26 02:26:45;;;;;;;9.13;7.20;;;;;;;;;;5135655;27;20024;-58
2021/09/26 02:29:12;;;;;;;10.93;7.70;;;;;;;;;;5135202;27;20029;-58
2021/09/26 02:31:38;;;;;;;9.25;6.72;;;;;;;;;;5135420;27;20034;-58
2021/09/26 02:34:04;;;;;;;9.23;6.75;;;;;;;;;;5135729;27;20130;-58
2021/09/26 02:36:30;;;;;;;9.15;6.35;;;;;;;;;;5135334;27;20035;-58
2021/09/26 02:38:56;;;;;;;10.13;7.82;;;;;;;;;;5135242;27;20046;-58
2021/09/26 02:41:31;;;;;;;12.75;8.15;;;;;;;;;;5135125;27;20019;-58
2021/09/26 02:44:06;;;;;;;11.23;7.80;;;;;;;;;;5135558;27;20380;-58
2021/09/26 02:46:37;;;;;;;12.68;7.50;;;;;;;;;;5134967;27;20502;-58
2021/09/26 02:49:04;;;;;;;8.95;7.05;;;;;;;;;;5116924;27;20022;-58
2021/09/26 02:51:30;;;;;;;9.52;6.70;;;;;;;;;;5134949;27;20046;-58
2021/09/26 02:53:57;;;;;;;11.38;7.40;;;;;;;;;;5135137;27;20019;-58
2021/09/26 02:56:25;;;;;;;11.68;7.65;;;;;;;;;;5135066;27;20482;-58
2021/09/26 02:58:51;;;;;;;10.82;7.40;;;;;;;;;;5134836;27;20027;-59
2021/09/26 03:01:17;;;;;;;9.75;6.63;;;;;;;;;;5134820;27;20031;-58
2021/09/26 03:03:43;;;;;;;10.18;6.85;;;;;;;;;;5134707;27;20031;-58
2021/09/26 03:06:09;;;;;;;12.27;8.13;;;;;;;;;;5134844;27;20039;-58
2021/09/26 03:08:35;;;;;;;9.65;7.93;;;;;;;;;;5134720;27;20025;-58
2021/09/26 03:11:02;;;;;;;12.48;7.60;;;;;;;;;;5133938;27;20031;-58
2021/09/26 03:13:28;;;;;;;11.57;8.07;;;;;;;;;;5116092;27;20031;-58
2021/09/26 03:15:54;;;;;;;11.35;8.27;;;;;;;;;;5135040;27;20110;-58
2021/09/26 03:18:20;;;;;;;11.40;7.88;;;;;;;;;;5134751;27;20542;-58
2021/09/26 03:20:46;;;;;;;9.48;6.85;;;;;;;;;;5134841;27;20030;-58
2021/09/26 03:23:12;;;;;;;11.32;6.90;;;;;;;;;;5134238;27;20024;-58
2021/09/26 03:25:39;;;;;;;10.73;6.97;;;;;;;;;;5134376;27;20042;-58
2021/09/26 03:28:05;;;;;;;9.18;6.97;;;;;;;;;;5134306;27;20019;-58
2021/09/26 03:30:31;;;;;;;14.07;9.00;;;;;;;;;;5134336;27;20350;-58
2021/09/26 03:32:57;;;;;;;11.23;7.63;;;;;;;;;;5115865;27;20463;-59
2021/09/26 03:35:23;;;;;;;9.57;7.63;;;;;;;;;;5134253;27;20065;-58
2021/09/26 03:37:49;;;;;;;10.02;7.05;;;;;;;;;;5134235;27;20050;-58
2021/09/26 03:40:16;;;;;;;9.45;7.50;;;;;;;;;;5111720;27;20104;-58
2021/09/26 03:42:43;;;;;;;9.55;6.95;;;;;;;;;;5030019;28;20029;-58
2021/09/26 03:45:09;;;;;;;9.15;7.18;;;;;;;;;;5030240;28;20064;-58
2021/09/26 03:47:35;;;;;;;11.75;7.78;;;;;;;;;;5030069;28;20029;-58
2021/09/26 03:50:02;;;;;;;9.13;6.60;;;;;;;;;;5030043;28;20037;-58
2021/09/26 03:52:28;;;;;;;9.15;6.72;;;;;;;;;;5126365;27;20023;-58
2021/09/26 03:54:54;;;;;;;11.02;8.10;;;;;;;;;;5133906;27;20466;-58
2021/09/26 03:57:21;;;;;;;9.30;7.35;;;;;;;;;;5134042;27;20087;-58
2021/09/26 03:59:47;;;;;;;14.00;8.73;;;;;;;;;;5134065;27;20114;-59
2021/09/26 04:02:13;;;;;;;8.63;6.70;;;;;;;;;;5133628;27;20074;-58
2021/09/26 04:04:39;;;;;;;9.73;7.05;;;;;;;;;;5115548;27;20023;-58
2021/09/26 04:07:05;;;;;;;9.02;6.90;;;;;;;;;;5133836;27;20059;-58
2021/09/26 04:09:31;;;;;;;10.68;7.07;;;;;;;;;;5133499;27;20374;-58
2021/09/26 04:11:57;;;;;;;12.60;7.18;;;;;;;;;;5133541;27;20035;-58
2021/09/26 04:14:23;;;;;;;9.32;7.05;;;;;;;;;;5133673;27;20433;-58
2021/09/26 04:16:52;;;;;;;9.30;6.45;;;;;;;;;;5133771;28;20031;-58
2021/09/26 04:19:18;;;;;;;9.13;6.93;;;;;;;;;;5133748;28;20030;-58
2021/09/26 04:21:44;;;;;;;8.77;7.35;;;;;;;;;;5116375;27;20456;-59
2021/09/26 04:24:10;;;;;;;9.88;6.97;;;;;;;;;;5137572;27;20043;-58
2021/09/26 04:26:36;;;;;;;10.05;6.47;;;;;;;;;;5138315;27;20042;-58
2021/09/26 04:29:02;;;;;;;13.05;6.55;;;;;;;;;;5137799;27;20060;-58
2021/09/26 04:31:28;;;;;;;8.18;6.90;;;;;;;;;;5137843;27;20031;-58
2021/09/26 04:33:54;;;;;;;9.77;6.72;;;;;;;;;;5138110;27;20035;-58
2021/09/26 04:36:20;;;;;;;10.63;6.20;;;;;;;;;;5137772;27;20126;-58
2021/09/26 04:38:46;;;;;;;9.70;6.57;;;;;;;;;;5137944;27;20027;-58
2021/09/26 04:41:12;;;;;;;8.63;6.32;;;;;;;;;;5137243;27;20355;-58
2021/09/26 04:43:38;;;;;;;7.90;5.90;;;;;;;;;;5137577;27;20037;-58
2021/09/26 04:46:04;;;;;;;7.45;6.30;;;;;;;;;;5137720;27;20012;-58
2021/09/26 04:48:30;;;;;;;10.82;6.65;;;;;;;;;;5137482;27;20030;-58
2021/09/26 04:50:56;;;;;;;7.63;6.15;;;;;;;;;;5118892;27;20051;-58
2021/09/26 04:53:22;;;;;;;9.40;6.95;;;;;;;;;;5137318;27;20055;-58
2021/09/26 04:55:49;;;;;;;8.68;6.32;;;;;;;;;;5137210;27;20084;-58
2021/09/26 04:58:15;;;;;;;9.13;5.97;;;;;;;;;;5137205;27;20047;-58
2021/09/26 05:00:41;;;;;;;10.80;6.35;;;;;;;;;;5137393;27;20076;-58
2021/09/26 05:03:07;;;;;;;9.77;6.55;;;;;;;;;;5137459;27;20412;-58
2021/09/26 05:05:33;;;;;;;7.97;5.78;;;;;;;;;;5137384;27;20035;-58
2021/09/26 05:07:59;;;;;;;8.98;6.18;;;;;;;;;;5137045;27;20046;-58
2021/09/26 05:10:25;;;;;;;7.70;6.07;;;;;;;;;;5137272;27;20382;-58
2021/09/26 05:12:51;;;;;;;7.90;5.93;;;;;;;;;;5136958;27;20015;-58
2021/09/26 05:15:17;;;;;;;9.40;6.40;;;;;;;;;;5137132;27;20034;-58
2021/09/26 05:17:43;;;;;;;8.73;6.13;;;;;;;;;;5136950;27;20024;-58
2021/09/26 05:20:10;;;;;;;6.63;5.53;;;;;;;;;;5136866;27;20030;-58
2021/09/26 05:22:36;;;;;;;8.95;5.03;;;;;;;;;;5137326;27;20058;-58
2021/09/26 05:25:03;;;;;;;7.88;6.30;;;;;;;;;;5136568;27;20047;-58
2021/09/26 05:27:29;;;;;;;8.48;6.13;;;;;;;;;;5136953;27;20060;-58
2021/09/26 05:29:55;;;;;;;7.45;5.43;;;;;;;;;;5136618;27;20031;-58
2021/09/26 05:32:21;;;;;;;8.43;5.38;;;;;;;;;;5136844;27;20433;-58
2021/09/26 05:34:47;;;;;;;8.82;5.90;;;;;;;;;;5136070;27;20110;-58
2021/09/26 05:37:13;;;;;;;8.90;6.15;;;;;;;;;;5136533;27;20156;-58
2021/09/26 05:39:39;;;;;;;12.82;6.57;;;;;;;;;;5136575;27;20106;-58
2021/09/26 05:42:06;;;;;;;7.97;5.97;;;;;;;;;;5136256;27;20023;-58
2021/09/26 05:44:36;;;;;;;10.75;7.00;;;;;;;;;;5136341;27;20027;-59
2021/09/26 05:47:03;;;;;;;8.85;6.32;;;;;;;;;;5136698;27;20098;-58
2021/09/26 05:49:29;;;;;;;8.68;6.20;;;;;;;;;;5117708;27;20435;-58
2021/09/26 05:51:57;;;;;;;11.82;6.32;;;;;;;;;;5063325;27;20064;-58
2021/09/26 05:54:23;;;;;;;8.55;6.22;;;;;;;;;;5032103;28;20021;-58
2021/09/26 05:56:49;;;;;;;8.77;6.07;;;;;;;;;;5031801;28;20040;-58
2021/09/26 05:59:15;;;;;;;10.57;6.90;;;;;;;;;;5031718;28;20037;-58
2021/09/26 06:01:41;;;;;;;7.63;6.10;;;;;;;;;;5031900;28;20022;-58
2021/09/26 06:04:07;;;;;;;10.10;6.25;;;;;;;;;;5030423;28;20398;-58
2021/09/26 06:06:33;;;;;;;9.27;6.38;;;;;;;;;;5032125;28;20456;-58
2021/09/26 06:08:59;;;;;;;8.50;5.75;;;;;;;;;;5031525;28;20049;-58
2021/09/26 06:11:25;;;;;;;7.80;5.85;;;;;;;;;;5031499;28;20036;-58
2021/09/26 06:13:51;;;;;;;7.53;5.85;;;;;;;;;;5030238;28;20030;-58
2021/09/26 06:16:17;;;;;;;7.68;5.82;;;;;;;;;;5031727;28;20078;-58
2021/09/26 06:18:43;;;;;;;10.25;6.10;;;;;;;;;;5030183;28;20032;-58
2021/09/26 06:21:09;;;;;;;8.20;6.13;;;;;;;;;;5031445;28;20025;-58
2021/09/26 06:23:35;;;;;;;8.43;5.28;;;;;;;;;;5031432;28;20021;-57
2021/09/26 06:26:01;;;;;;;9.43;5.88;;;;;;;;;;5031342;28;20461;-58
2021/09/26 06:28:27;;;;;;;8.55;5.35;;;;;;;;;;5031407;28;20021;-58
2021/09/26 06:30:53;;;;;;;9.30;6.10;;;;;;;;;;5031400;28;20041;-58
2021/09/26 06:33:19;;;;;;;9.38;6.00;;;;;;;;;;5031271;28;20036;-58
2021/09/26 06:35:45;;;;;;;9.02;5.93;;;;;;;;;;5031220;28;20514;-58
2021/09/26 06:38:11;;;;;;;6.93;5.63;;;;;;;;;;5031221;28;20065;-58
2021/09/26 06:40:37;;;;;;;7.63;5.80;;;;;;;;;;5031372;28;20044;-58
2021/09/26 06:43:03;;;;;;;7.03;5.00;;;;;;;;;;5030906;28;20075;-58
2021/09/26 06:45:29;;;;;;;7.20;5.05;;;;;;;;;;5030052;28;20499;-58
2021/09/26 06:47:55;;;;;;;8.93;6.22;;;;;;;;;;5031162;28;20022;-58
2021/09/26 06:50:21;;;;;;;8.40;6.45;;;;;;;;;;5036263;27;20041;-58
2021/09/26 06:52:47;;;;;;;8.48;6.25;;;;;;;;;;5135082;27;20033;-58
2021/09/26 06:55:13;;;;;;;7.75;6.40;;;;;;;;;;5134917;27;20023;-58
2021/09/26 06:57:39;;;;;;;8.80;6.65;;;;;;;;;;5134860;27;20038;-57
2021/09/26 07:00:06;;;;;;;6.60;5.75;;;;;;;;;;5135204;27;20111;-58
2021/09/26 07:02:32;;;;;;;8.02;6.05;;;;;;;;;;5134950;27;20027;-59
2021/09/26 07:04:58;;;;;;;7.82;5.97;;;;;;;;;;5134806;27;20042;-58
2021/09/26 07:07:24;;;;;;;8.32;6.20;;;;;;;;;;5134641;27;20035;-58
2021/09/26 07:09:51;;;;;;;8.88;6.13;;;;;;;;;;5134461;27;20027;-58
2021/09/26 07:12:17;;;;;;;9.45;6.88;;;;;;;;;;5134759;27;20027;-59
2021/09/26 07:14:43;;;;;;;9.57;7.28;;;;;;;;;;5134599;27;20494;-59
2021/09/26 07:17:09;;;;;;;7.78;5.57;;;;;;;;;;5134672;27;20170;-57
2021/09/26 07:19:35;;;;;;;7.45;5.68;;;;;;;;;;5134606;27;20113;-58
2021/09/26 07:22:01;;;;;;;6.78;5.55;;;;;;;;;;5134581;27;20030;-59
2021/09/26 07:24:27;;;;;;;5.97;5.00;;;;;;;;;;5133919;27;20118;-59
2021/09/26 07:26:53;;;;;;;7.15;5.45;;;;;;;;;;5134556;27;20024;-59
2021/09/26 07:29:19;;;;;;;7.75;5.07;;;;;;;;;;5134234;27;20027;-59
2021/09/26 07:31:46;;;;;;;8.63;5.70;;;;;;;;;;5134452;27;20019;-58
2021/09/26 07:34:12;;;;;;;8.98;5.88;;;;;;;;;;5134516;27;20034;-59
2021/09/26 07:36:38;;;;;;;6.88;5.45;;;;;;;;;;5134728;27;20031;-59
2021/09/26 07:39:04;;;;;;;7.88;5.22;;;;;;;;;;5134418;27;20058;-59
2021/09/26 07:41:30;;;;;;;8.15;5.20;;;;;;;;;;5134340;27;20095;-59
2021/09/26 07:43:57;;;;;;;5.68;4.97;;;;;;;;;;5133948;27;20428;-58
2021/09/26 07:46:23;;;;;;;6.63;5.47;;;;;;;;;;5134128;27;20046;-59
2021/09/26 07:48:49;;;;;;;8.40;5.75;;;;;;;;;;5134028;27;20061;-58
2021/09/26 07:51:15;;;;;;;7.63;5.80;;;;;;;;;;5133808;27;20035;-58
2021/09/26 07:53:41;;;;;;;8.57;6.22;;;;;;;;;;5134149;27;20080;-59
2021/09/26 07:56:07;;;;;;;9.35;6.45;;;;;;;;;;5133986;27;20023;-58
2021/09/26 07:58:34;;;;;;;8.82;6.00;;;;;;;;;;5133940;27;20023;-59
2021/09/26 08:01:01;;;;;;;9.07;5.97;;;;;;;;;;5134013;27;20023;-60
2021/09/26 08:03:27;;;;;;;8.15;6.28;;;;;;;;;;5133908;27;20066;-59
2021/09/26 08:05:53;;;;;;;11.98;6.47;;;;;;;;;;5133863;27;20486;-58
2021/09/26 08:08:19;;;;;;;9.10;6.18;;;;;;;;;;5133873;27;20343;-59
2021/09/26 08:10:45;;;;;;;8.85;6.28;;;;;;;;;;5133538;27;20114;-58
2021/09/26 08:13:11;;;;;;;8.57;6.00;;;;;;;;;;5133694;27;20034;-59
2021/09/26 08:15:37;;;;;;;8.18;6.32;;;;;;;;;;5133597;27;20028;-60
2021/09/26 08:18:03;;;;;;;7.28;5.68;;;;;;;;;;5133698;27;20019;-58
2021/09/26 08:20:30;;;;;;;7.20;5.80;;;;;;;;;;5133613;28;20114;-59
2021/09/26 08:22:56;;;;;;;8.20;6.10;;;;;;;;;;5133962;28;20023;-58
2021/09/26 08:25:22;;;;;;;7.82;5.55;;;;;;;;;;5133416;28;20061;-59
2021/09/26 08:27:49;;;;;;;7.32;6.15;;;;;;;;;;5133695;28;20094;-59
2021/09/26 08:30:16;;;;;;;8.63;5.93;;;;;;;;;;5133350;28;20031;-58
2021/09/26 08:32:42;;;;;;;7.45;5.72;;;;;;;;;;5133502;28;20454;-59
2021/09/26 08:35:09;;;;;;;7.75;5.50;;;;;;;;;;5114993;28;20023;-59
2021/09/26 08:37:35;;;;;;;9.15;6.07;;;;;;;;;;5133390;28;20405;-58
2021/09/26 08:40:01;;;;;;;8.52;6.15;;;;;;;;;;5133324;28;20652;-59
2021/09/26 08:42:27;;;;;;;8.45;5.75;;;;;;;;;;5133433;28;20058;-59
2021/09/26 08:44:54;;;;;;;6.85;5.32;;;;;;;;;;5133363;28;20115;-59
2021/09/26 08:47:20;;;;;;;8.85;5.43;;;;;;;;;;5133340;28;20019;-58
2021/09/26 08:49:46;;;;;;;8.27;5.72;;;;;;;;;;5133821;28;20035;-59
2021/09/26 08:52:12;;;;;;;8.68;6.20;;;;;;;;;;5133276;28;20382;-59
2021/09/26 08:54:39;;;;;;;7.03;5.72;;;;;;;;;;5114943;28;20485;-59
2021/09/26 08:57:05;;;;;;;9.45;6.13;;;;;;;;;;5133285;27;20019;-59
2021/09/26 08:59:31;;;;;;;8.02;5.97;;;;;;;;;;5133301;28;20031;-58
2021/09/26 09:01:57;;;;;;;9.95;6.47;;;;;;;;;;5133305;28;20366;-58
2021/09/26 09:04:33;;;;;;;8.68;6.50;;;;;;;;;;5133388;28;20483;-58
2021/09/26 09:07:02;;;;;;;10.88;6.82;;;;;;;;;;5114917;28;20079;-59
2021/09/26 09:09:28;;;;;;;8.50;6.18;;;;;;;;;;5135232;27;20412;-59
2021/09/26 09:12:02;;;;;;;12.13;6.47;;;;;;;;;;5136882;27;20023;-58
2021/09/26 09:14:47;;;;;;;10.13;6.50;;;;;;;;;;5137221;27;20098;-58
2021/09/26 09:17:23;;;;;;;10.15;6.18;;;;;;;;;;5136811;27;20023;-59
2021/09/26 09:20:09;;;;;;;11.40;6.72;;;;;;;;;;5136928;27;20038;-58
2021/09/26 09:22:35;;;;;;;8.20;6.55;;;;;;;;;;5136888;27;20019;-60
2021/09/26 09:25:01;;;;;;;8.65;6.90;;;;;;;;;;5136597;27;20059;-58
2021/09/26 09:27:28;;;;;;;9.63;6.80;;;;;;;;;;5136588;27;20031;-58
2021/09/26 09:29:54;;;;;;;10.57;7.22;;;;;;;;;;5118270;27;20033;-58
2021/09/26 09:32:22;;;;;;;8.88;6.95;;;;;;;;;;5118233;27;20070;-58
2021/09/26 09:34:49;;;;;;;10.73;6.85;;;;;;;;;;5137084;27;20084;-59
2021/09/26 09:37:19;;;;;;;8.35;6.53;;;;;;;;;;5136576;27;20065;-58
2021/09/26 09:40:04;;;;;;;9.98;6.90;;;;;;;;;;5136149;27;20023;-59
2021/09/26 09:42:35;;;;;;;11.32;7.32;;;;;;;;;;5100488;28;20402;-59
2021/09/26 09:45:12;;;;;;;10.53;7.07;;;;;;;;;;5100478;28;20037;-58
2021/09/26 09:47:54;;;;;;;9.05;6.80;;;;;;;;;;5032095;28;20247;-58
2021/09/26 09:50:20;;;;;;;10.53;6.90;;;;;;;;;;5036815;27;20052;-59
2021/09/26 09:52:53;;;;;;;10.88;7.38;;;;;;;;;;5136061;27;20020;-59
2021/09/26 09:55:19;;;;;;;9.65;7.30;;;;;;;;;;5136424;27;20440;-58
2021/09/26 09:57:45;;;;;;;13.60;7.93;;;;;;;;;;5136007;27;20065;-59
2021/09/26 10:00:15;;;;;;;9.38;6.97;;;;;;;;;;5136401;27;20023;-58
2021/09/26 10:02:41;;;;;;;10.02;7.60;;;;;;;;;;5136110;27;20111;-58
2021/09/26 10:05:07;;;;;;;12.50;7.43;;;;;;;;;;5136117;27;20114;-59
2021/09/26 10:07:33;;;;;;;10.68;8.07;;;;;;;;;;5135719;27;20030;-59
2021/09/26 10:09:59;;;;;;;10.20;7.38;;;;;;;;;;5135966;27;20035;-59
2021/09/26 10:12:32;;;;;;;10.00;7.90;;;;;;;;;;5135972;27;20056;-59
2021/09/26 10:15:00;;;;;;;10.00;7.57;;;;;;;;;;5136041;27;20023;-58
2021/09/26 10:17:26;;;;;;;11.07;8.00;;;;;;;;;;5135641;27;20029;-58
2021/09/26 10:19:53;;;;;;;9.65;7.45;;;;;;;;;;5135573;27;20030;-59
2021/09/26 10:22:19;;;;;;;11.55;8.13;;;;;;;;;;5135563;27;20031;-58
2021/09/26 10:24:47;;;;;;;11.70;8.75;;;;;;;;;;5135566;27;20118;-58
2021/09/26 10:27:14;;;;;;;13.75;9.05;;;;;;;;;;5135838;27;20035;-59
2021/09/26 10:29:44;;;;;;;11.80;8.52;;;;;;;;;;5135739;27;20058;-58
2021/09/26 10:32:11;;;;;;;14.18;9.00;;;;;;;;;;5135276;27;20594;-59
2021/09/26 10:34:38;;;;;;;13.90;9.80;;;;;;;;;;5135430;27;20019;-58
2021/09/26 10:37:05;;;;;;;13.25;9.40;;;;;;;;;;5135356;27;20098;-59
2021/09/26 10:39:31;;;;;;;12.85;9.50;;;;;;;;;;5116886;27;20164;-58
2021/09/26 10:42:16;;;;;;;14.32;9.93;;;;;;;;;;5135259;27;20459;-59
2021/09/26 10:44:45;;;;;;;14.80;10.57;;;;;;;;;;5135377;27;20034;-58
2021/09/26 10:47:16;;;;;;;16.73;10.93;;;;;;;;;;5135224;27;20023;-58
2021/09/26 10:49:44;;;;;;;15.45;10.88;;;;;;;;;;5134995;27;20027;-59
2021/09/26 10:52:28;;;;;;;17.27;10.85;;;;;;;;;;5134990;27;20068;-59
2021/09/26 10:54:54;;;;;;;15.00;11.43;;;;;;;;;;5116568;27;20031;-59
2021/09/26 10:57:22;;;;;;;16.02;10.38;;;;;;;;;;5135116;27;20106;-58
2021/09/26 10:59:51;;;;;;;15.65;11.48;;;;;;;;;;5135325;27;20106;-59
2021/09/26 11:02:24;;;;;;;16.30;10.95;;;;;;;;;;5135090;27;20222;-58
2021/09/26 11:04:50;;;;;;;17.58;11.73;;;;;;;;;;5116339;27;20027;-59
2021/09/26 11:07:16;;;;;;;16.40;11.27;;;;;;;;;;5134645;27;20034;-58
2021/09/26 11:09:52;;;;;;;19.92;11.95;;;;;;;;;;5134638;27;20042;-59
2021/09/26 11:12:37;;;;;;;12.85;10.32;;;;;;;;;;5134609;27;20106;-59
2021/09/26 11:15:04;;;;;;;15.55;10.13;;;;;;;;;;5134651;27;20458;-59
2021/09/26 11:17:43;;;;;;;15.00;11.15;;;;;;;;;;5134601;27;20031;-58
2021/09/26 11:20:10;;;;;;;13.05;10.60;;;;;;;;;;5134528;27;20023;-59
2021/09/26 11:22:36;;;;;;;14.55;10.90;;;;;;;;;;5134472;27;20030;-58
2021/09/26 11:25:03;;;;;;;15.45;10.75;;;;;;;;;;5134400;27;20132;-59
2021/09/26 11:27:36;;;;;;;14.25;10.52;;;;;;;;;;5134324;27;20019;-58
2021/09/26 11:30:05;;;;;;;16.33;10.25;;;;;;;;;;5134450;27;20027;-58
2021/09/26 11:32:33;;;;;;;14.18;10.43;;;;;;;;;;5133772;27;20023;-58
2021/09/26 11:35:00;;;;;;;12.57;9.73;;;;;;;;;;5134370;27;20027;-59
2021/09/26 11:37:35;;;;;;;14.55;10.60;;;;;;;;;;5134123;27;20439;-59
2021/09/26 11:40:02;;;;;;;13.50;10.43;;;;;;;;;;5134457;27;20031;-58
2021/09/26 11:42:32;;;;;;;14.48;10.65;;;;;;;;;;5134097;27;20022;-58
2021/09/26 11:44:59;;;;;;;13.05;10.20;;;;;;;;;;5134247;27;20031;-59
2021/09/26 11:47:26;;;;;;;13.63;9.70;;;;;;;;;;5134012;27;20026;-59
2021/09/26 11:49:53;;;;;;;12.45;10.32;;;;;;;;;;5134007;27;20035;-58
2021/09/26 11:52:22;;;;;;;14.13;10.13;;;;;;;;;;5133866;27;20027;-59
2021/09/26 11:54:48;;;;;;;14.98;10.27;;;;;;;;;;5133975;27;20381;-58
2021/09/26 11:57:14;;;;;;;14.60;10.25;;;;;;;;;;5133968;27;20448;-59
2021/09/26 11:59:41;;;;;;;14.57;10.32;;;;;;;;;;5133889;27;20498;-59
2021/09/26 12:02:14;;;;;;;16.30;10.23;;;;;;;;;;5134036;27;20025;-59
2021/09/26 12:04:41;;;;;;;15.80;10.52;;;;;;;;;;5133720;27;20034;-58
2021/09/26 12:07:08;;;;;;;15.77;10.60;;;;;;;;;;5133905;27;20098;-60
2021/09/26 12:09:38;;;;;;;11.57;9.80;;;;;;;;;;5133643;27;20084;-59
2021/09/26 12:12:06;;;;;;;12.93;10.13;;;;;;;;;;5134018;27;20027;-59
2021/09/26 12:14:32;;;;;;;13.82;9.35;;;;;;;;;;5133688;27;20038;-59
2021/09/26 12:16:59;;;;;;;12.50;9.68;;;;;;;;;;5133653;27;20049;-59
2021/09/26 12:19:26;;;;;;;15.98;10.02;;;;;;;;;;5133406;27;20016;-59
2021/09/26 12:22:07;;;;;;;15.35;9.93;;;;;;;;;;5133616;28;20373;-58
2021/09/26 12:24:36;;;;;;;12.85;9.23;;;;;;;;;;5133338;28;20054;-59
2021/09/26 12:27:13;;;;;;;11.27;9.43;;;;;;;;;;5133646;28;20119;-58
2021/09/26 12:29:48;;;;;;;14.07;10.15;;;;;;;;;;5133475;28;20027;-58
2021/09/26 12:32:14;;;;;;;13.75;10.00;;;;;;;;;;5133647;28;20027;-58
2021/09/26 12:34:45;;;;;;;12.05;9.20;;;;;;;;;;5133477;28;20080;-59
2021/09/26 12:37:17;;;;;;;13.68;9.05;;;;;;;;;;5133385;28;20019;-59
2021/09/26 12:39:45;;;;;;;14.07;8.68;;;;;;;;;;5133272;28;20022;-59
2021/09/26 12:42:18;;;;;;;12.70;9.07;;;;;;;;;;5009642;28;20347;-60
2021/09/26 12:44:44;;;;;;;12.70;8.70;;;;;;;;;;5011880;28;20029;-59
2021/09/26 12:47:15;;;;;;;10.85;8.45;;;;;;;;;;5013082;28;20365;-59
2021/09/26 12:49:42;;;;;;;12.17;8.17;;;;;;;;;;5013186;28;20042;-60
2021/09/26 12:52:11;;;;;;;10.40;8.02;;;;;;;;;;5114776;27;20022;-59
2021/09/26 12:54:39;;;;;;;11.70;8.07;;;;;;;;;;5137095;27;20477;-59
2021/09/26 12:57:08;;;;;;;13.05;7.90;;;;;;;;;;5137524;27;20030;-59
2021/09/26 12:59:36;;;;;;;11.55;7.53;;;;;;;;;;5137270;27;20027;-60
2021/09/26 13:02:22;;;;;;;9.10;7.75;;;;;;;;;;5137293;27;20428;-59
2021/09/26 13:05:00;;;;;;;10.10;7.72;;;;;;;;;;5137340;27;20023;-59
2021/09/26 13:07:27;;;;;;;11.40;7.53;;;;;;;;;;5137058;27;20030;-59
2021/09/26 13:09:54;;;;;;;10.25;6.97;;;;;;;;;;5136861;27;20160;-59
2021/09/26 13:12:22;;;;;;;13.25;7.78;;;;;;;;;;5137116;27;20023;-59
2021/09/26 13:15:07;;;;;;;10.25;6.90;;;;;;;;;;5136996;27;20347;-59
2021/09/26 13:17:33;;;;;;;11.18;7.90;;;;;;;;;;5137100;27;20019;-59
2021/09/26 13:20:13;;;;;;;8.82;7.22;;;;;;;;;;5136924;27;20023;-59
2021/09/26 13:22:39;;;;;;;11.50;7.85;;;;;;;;;;5118551;27;20048;-59
2021/09/26 13:25:08;;;;;;;9.95;7.68;;;;;;;;;;5136478;27;20039;-59
2021/09/26 13:27:37;;;;;;;11.68;7.55;;;;;;;;;;5136918;27;20061;-59
2021/09/26 13:30:23;;;;;;;13.65;8.45;;;;;;;;;;5136761;27;20163;-59
2021/09/26 13:32:54;;;;;;;10.93;8.43;;;;;;;;;;5122687;27;20474;-59
2021/09/26 13:35:22;;;;;;;10.93;8.38;;;;;;;;;;5136540;27;20103;-59
2021/09/26 13:38:03;;;;;;;10.75;7.85;;;;;;;;;;5136755;27;20034;-59
2021/09/26 13:40:31;;;;;;;11.20;8.18;;;;;;;;;;5136491;27;20022;-59
2021/09/26 13:43:03;;;;;;;10.18;8.05;;;;;;;;;;5136621;27;20019;-59
2021/09/26 13:45:29;;;;;;;9.95;8.32;;;;;;;;;;5136605;27;20034;-59
2021/09/26 13:47:55;;;;;;;10.43;8.20;;;;;;;;;;5136427;27;20027;-59
2021/09/26 13:50:21;;;;;;;11.43;8.75;;;;;;;;;;5136227;27;20033;-59
2021/09/26 13:52:47;;;;;;;11.90;9.02;;;;;;;;;;5136268;27;20045;-59
2021/09/26 13:55:14;;;;;;;11.07;8.10;;;;;;;;;;5135585;27;20072;-59
2021/09/26 13:57:40;;;;;;;10.20;7.80;;;;;;;;;;5136389;27;20027;-59
2021/09/26 14:00:08;;;;;;;11.30;8.07;;;;;;;;;;5136088;27;20038;-59
2021/09/26 14:02:34;;;;;;;16.15;7.95;;;;;;;;;;5136436;27;20023;-59
2021/09/26 14:05:00;;;;;;;8.73;7.30;;;;;;;;;;5136000;27;20054;-59
2021/09/26 14:07:26;;;;;;;14.27;7.45;;;;;;;;;;5136449;27;20133;-59
2021/09/26 14:09:52;;;;;;;9.60;7.72;;;;;;;;;;5136034;27;20071;-59
2021/09/26 14:12:18;;;;;;;9.30;8.05;;;;;;;;;;5135970;27;20100;-59
2021/09/26 14:14:45;;;;;;;10.43;7.75;;;;;;;;;;5136205;27;20053;-59
2021/09/26 14:17:12;;;;;;;10.40;8.32;;;;;;;;;;5117263;27;20135;-59
2021/09/26 14:19:38;;;;;;;9.27;7.90;;;;;;;;;;5135616;27;20482;-59
2021/09/26 14:22:05;;;;;;;10.40;8.05;;;;;;;;;;5136004;27;20035;-59
2021/09/26 14:24:31;;;;;;;12.07;7.93;;;;;;;;;;5135644;27;20042;-59
2021/09/26 14:26:57;;;;;;;10.20;8.15;;;;;;;;;;5135666;27;20027;-60
2021/09/26 14:29:23;;;;;;;13.13;8.60;;;;;;;;;;5135446;27;20449;-59
2021/09/26 14:31:50;;;;;;;10.55;8.15;;;;;;;;;;5135709;27;20518;-59
2021/09/26 14:34:20;;;;;;;12.05;8.50;;;;;;;;;;5135350;27;20034;-59
2021/09/26 14:36:46;;;;;;;13.88;8.70;;;;;;;;;;5135674;27;20046;-59
2021/09/26 14:39:12;;;;;;;12.40;8.57;;;;;;;;;;5135259;27;20058;-59